createdAt,value
2023-01-25T00:00:31.047Z,97624.75
2023-01-25T00:02:58.345Z,97630.59
2023-01-25T00:05:25.516Z,97627.19
2023-01-25T00:07:52.626Z,97625.25
2023-01-25T00:10:20.343Z,97613.13
2023-01-25T00:12:47.404Z,97609.22
2023-01-25T00:15:14.943Z,97617.81
2023-01-25T00:17:41.987Z,97613.94
2023-01-25T00:20:09.924Z,97613.78
2023-01-25T00:22:36.944Z,97618.66
2023-01-25T00:25:04.264Z,97615.91
2023-01-25T00:27:31.267Z,97619.31
2023-01-25T00:29:58.390Z,97606.22
2023-01-25T00:33:02.049Z,97608.94
2023-01-25T00:35:32.867Z,97609.41
2023-01-25T00:38:03.383Z,97608.97
2023-01-25T00:40:30.487Z,97605.88
2023-01-25T00:43:01.030Z,97605.72
2023-01-25T00:45:28.255Z,97615.09
2023-01-25T00:47:56.566Z,97615.25
2023-01-25T00:50:23.979Z,97618.34
2023-01-25T00:52:50.999Z,97620.91
2023-01-25T00:55:18.109Z,97617.97
2023-01-25T00:57:45.219Z,97613.78
2023-01-25T01:00:13.023Z,97616.53
2023-01-25T01:02:40.935Z,97617.50
2023-01-25T01:05:08.666Z,97613.56
2023-01-25T01:07:36.064Z,97620.72
2023-01-25T01:10:03.522Z,97618.13
2023-01-25T01:12:30.564Z,97620.72
2023-01-25T01:14:57.686Z,97610.22
2023-01-25T01:17:25.007Z,97605.81
2023-01-25T01:19:52.043Z,97607.63
2023-01-25T01:22:19.152Z,97610.22
2023-01-25T01:24:49.523Z,97603.41
2023-01-25T01:27:16.530Z,97601.63
2023-01-25T01:29:43.737Z,97606.00
2023-01-25T01:32:10.885Z,97606.28
2023-01-25T01:34:38.081Z,97615.03
2023-01-25T01:37:05.146Z,97617.63
2023-01-25T01:39:32.343Z,97614.06
2023-01-25T01:41:59.752Z,97616.34
2023-01-25T01:44:52.146Z,97613.25
2023-01-25T01:47:23.355Z,97615.03
2023-01-25T01:50:01.843Z,97612.44
2023-01-25T01:52:36.089Z,97614.06
2023-01-25T01:55:05.319Z,97619.91
2023-01-25T01:57:38.287Z,97603.72
2023-01-25T02:00:12.185Z,97610.66
2023-01-25T02:02:43.908Z,97600.13
2023-01-25T02:05:31.529Z,97607.75
2023-01-25T02:07:59.283Z,97603.03
2023-01-25T02:10:27.954Z,97602.41
2023-01-25T02:12:58.741Z,97600.78
2023-01-25T02:15:31.731Z,97604.34
2023-01-25T02:17:59.925Z,97594.47
2023-01-25T02:20:38.040Z,97600.63
2023-01-25T02:23:23.543Z,97596.91
2023-01-25T02:25:51.404Z,97587.50
2023-01-25T02:28:41.791Z,97587.81
2023-01-25T02:31:09.005Z,97585.91
2023-01-25T02:33:36.834Z,97596.53
2023-01-25T02:36:07.553Z,97593.81
2023-01-25T02:38:41.606Z,97596.06
2023-01-25T02:41:15.883Z,97588.31
2023-01-25T02:43:43.703Z,97582.13
2023-01-25T02:46:27.912Z,97582.75
2023-01-25T02:48:55.789Z,97585.50
2023-01-25T02:51:24.889Z,97580.81
2023-01-25T02:53:53.186Z,97573.34
2023-01-25T02:56:20.762Z,97572.72
2023-01-25T02:58:48.946Z,97573.69
2023-01-25T03:01:17.226Z,97569.00
2023-01-25T03:03:44.666Z,97566.03
2023-01-25T03:06:11.803Z,97560.69
2023-01-25T03:08:40.223Z,97561.50
2023-01-25T03:11:08.289Z,97561.63
2023-01-25T03:13:36.925Z,97560.81
2023-01-25T03:16:08.416Z,97561.00
2023-01-25T03:18:37.102Z,97559.53
2023-01-25T03:21:09.889Z,97557.91
2023-01-25T03:23:37.504Z,97556.75
2023-01-25T03:26:09.983Z,97554.31
2023-01-25T03:28:41.784Z,97549.97
2023-01-25T03:31:11.535Z,97547.84
2023-01-25T03:33:39.305Z,97555.91
2023-01-25T03:36:07.529Z,97548.44
2023-01-25T03:38:35.324Z,97547.50
2023-01-25T03:41:03.709Z,97547.00
2023-01-25T03:43:32.763Z,97547.78
2023-01-25T03:46:01.602Z,97549.41
2023-01-25T03:48:31.004Z,97546.97
2023-01-25T03:50:59.843Z,97543.22
2023-01-25T03:53:30.426Z,97542.69
2023-01-25T03:56:17.711Z,97550.75
2023-01-25T03:58:51.905Z,97545.09
2023-01-25T04:01:19.083Z,97542.16
2023-01-25T04:03:46.293Z,97535.03
2023-01-25T04:06:13.332Z,97537.63
2023-01-25T04:08:40.508Z,97541.16
2023-01-25T04:11:10.886Z,97538.88
2023-01-25T04:13:39.253Z,97526.25
2023-01-25T04:16:12.410Z,97527.53
2023-01-25T04:19:05.405Z,97522.34
2023-01-25T04:21:32.763Z,97533.50
2023-01-25T04:24:00.220Z,97528.47
2023-01-25T04:26:28.632Z,97517.66
2023-01-25T04:28:59.482Z,97529.09
2023-01-25T04:31:27.331Z,97519.28
2023-01-25T04:33:55.947Z,97530.72
2023-01-25T04:36:23.065Z,97530.25
2023-01-25T04:38:50.224Z,97529.22
2023-01-25T04:41:17.525Z,97522.63
2023-01-25T04:43:45.344Z,97526.97
2023-01-25T04:46:13.650Z,97521.81
2023-01-25T04:48:40.895Z,97525.19
2023-01-25T04:51:09.766Z,97524.06
2023-01-25T04:53:36.931Z,97511.81
2023-01-25T04:56:06.837Z,97514.13
2023-01-25T04:58:42.194Z,97520.22
2023-01-25T05:01:10.485Z,97522.00
2023-01-25T05:03:37.540Z,97516.53
2023-01-25T05:06:09.068Z,97519.09
2023-01-25T05:08:36.184Z,97520.88
2023-01-25T05:11:03.667Z,97519.09
2023-01-25T05:13:40.794Z,97522.50
2023-01-25T05:16:21.689Z,97511.69
2023-01-25T05:18:49.664Z,97505.03
2023-01-25T05:21:39.661Z,97504.88
2023-01-25T05:24:08.492Z,97509.38
2023-01-25T05:26:54.435Z,97507.25
2023-01-25T05:29:21.975Z,97510.00
2023-01-25T05:31:54.297Z,97525.78
2023-01-25T05:34:21.876Z,97516.88
2023-01-25T05:36:49.599Z,97526.38
2023-01-25T05:39:17.976Z,97519.91
2023-01-25T05:41:47.536Z,97522.78
2023-01-25T05:44:15.376Z,97531.06
2023-01-25T05:46:46.921Z,97546.03
2023-01-25T05:49:15.855Z,97545.34
2023-01-25T05:51:45.097Z,97545.88
2023-01-25T05:54:14.954Z,97556.81
2023-01-25T05:56:50.546Z,97549.22
2023-01-25T05:59:18.987Z,97556.75
2023-01-25T06:01:47.298Z,97558.50
2023-01-25T06:04:17.582Z,97554.03
2023-01-25T06:06:46.064Z,97561.09
2023-01-25T06:09:14.464Z,97552.53
2023-01-25T06:11:45.619Z,97560.13
2023-01-25T06:14:13.923Z,97554.84
2023-01-25T06:16:41.462Z,97557.91
2023-01-25T06:19:27.787Z,97561.66
2023-01-25T06:22:27.313Z,97562.34
2023-01-25T06:24:54.456Z,97560.56
2023-01-25T06:27:21.775Z,97569.63
2023-01-25T06:29:48.875Z,97566.91
2023-01-25T06:32:16.203Z,97564.16
2023-01-25T06:34:43.663Z,97574.34
2023-01-25T06:37:17.017Z,97584.53
2023-01-25T06:39:44.175Z,97581.28
2023-01-25T06:42:11.343Z,97573.53
2023-01-25T06:44:38.576Z,97567.41
2023-01-25T06:47:05.777Z,97577.44
2023-01-25T06:49:33.020Z,97564.22
2023-01-25T06:52:01.618Z,97573.59
2023-01-25T06:54:28.955Z,97564.09
2023-01-25T06:56:56.055Z,97563.94
2023-01-25T06:59:23.095Z,97570.22
2023-01-25T07:01:50.585Z,97560.03
2023-01-25T07:04:17.898Z,97555.81
2023-01-25T07:06:45.256Z,97553.09
2023-01-25T07:09:14.785Z,97546.16
2023-01-25T07:11:42.057Z,97554.78
2023-01-25T07:14:09.303Z,97533.78
2023-01-25T07:16:39.429Z,97533.13
2023-01-25T07:19:08.137Z,97528.75
2023-01-25T07:21:35.373Z,97530.59
2023-01-25T07:24:04.481Z,97525.78
2023-01-25T07:26:32.584Z,97530.00
2023-01-25T07:29:00.172Z,97527.25
2023-01-25T07:31:29.106Z,97525.34
2023-01-25T07:33:57.707Z,97521.81
2023-01-25T07:36:26.817Z,97519.81
2023-01-25T07:38:55.777Z,97519.03
2023-01-25T07:41:24.895Z,97529.03
2023-01-25T07:43:53.017Z,97512.06
2023-01-25T07:46:30.589Z,97508.38
2023-01-25T07:48:59.182Z,97510.94
2023-01-25T07:51:31.262Z,97516.13
2023-01-25T07:54:04.146Z,97509.19
2023-01-25T07:56:38.146Z,97514.53
2023-01-25T07:59:08.553Z,97522.81
2023-01-25T08:01:37.335Z,97516.09
2023-01-25T08:04:05.455Z,97517.84
2023-01-25T08:06:39.518Z,97519.69
2023-01-25T08:09:13.783Z,97525.00
2023-01-25T08:11:42.692Z,97528.44
2023-01-25T08:14:09.894Z,97529.25
2023-01-25T08:16:37.546Z,97532.16
2023-01-25T08:19:05.336Z,97547.81
2023-01-25T08:21:34.852Z,97535.03
2023-01-25T08:24:06.082Z,97535.41
2023-01-25T08:26:36.280Z,97539.13
2023-01-25T08:29:04.495Z,97538.19
2023-01-25T08:31:34.175Z,97540.47
2023-01-25T08:34:02.100Z,97543.22
2023-01-25T08:36:29.624Z,97530.31
2023-01-25T08:39:14.962Z,97532.44
2023-01-25T08:41:43.072Z,97532.31
2023-01-25T08:44:10.895Z,97530.34
2023-01-25T08:46:38.385Z,97528.28
2023-01-25T08:49:06.386Z,97526.84
2023-01-25T08:51:34.336Z,97534.94
2023-01-25T08:54:09.134Z,97530.56
2023-01-25T08:56:40.671Z,97532.03
2023-01-25T08:59:11.015Z,97531.56
2023-01-25T09:01:38.261Z,97531.13
2023-01-25T09:04:05.691Z,97529.78
2023-01-25T09:06:33.708Z,97534.34
2023-01-25T09:09:00.860Z,97530.00
2023-01-25T09:11:28.435Z,97531.78
2023-01-25T09:13:55.659Z,97535.53
2023-01-25T09:16:31.125Z,97537.31
2023-01-25T09:19:02.273Z,97534.53
2023-01-25T09:21:30.030Z,97537.94
2023-01-25T09:24:06.038Z,97535.88
2023-01-25T09:26:40.708Z,97524.41
2023-01-25T09:29:09.301Z,97524.56
2023-01-25T09:31:41.128Z,97521.97
2023-01-25T09:34:14.220Z,97505.78
2023-01-25T09:36:41.427Z,97510.50
2023-01-25T09:39:12.658Z,97510.19
2023-01-25T09:42:14.603Z,97509.06
2023-01-25T09:44:55.072Z,97501.78
2023-01-25T09:47:51.583Z,97506.63
2023-01-25T09:50:33.822Z,97499.50
2023-01-25T09:53:15.943Z,97501.31
2023-01-25T09:55:44.456Z,97489.78
2023-01-25T09:58:17.976Z,97486.56
2023-01-25T10:00:48.386Z,97477.50
2023-01-25T10:03:39.344Z,97475.91
2023-01-25T10:06:13.263Z,97476.38
2023-01-25T10:08:49.288Z,97470.06
2023-01-25T10:11:25.592Z,97468.44
2023-01-25T10:13:56.267Z,97470.72
2023-01-25T10:16:30.847Z,97465.88
2023-01-25T10:19:23.037Z,97450.47
2023-01-25T10:22:24.104Z,97452.09
2023-01-25T10:25:06.936Z,97444.63
2023-01-25T10:28:04.981Z,97453.06
2023-01-25T10:30:51.035Z,97444.13
2023-01-25T10:33:20.551Z,97446.25
2023-01-25T10:35:50.294Z,97438.78
2023-01-25T10:38:35.498Z,97432.19
2023-01-25T10:41:06.379Z,97433.63
2023-01-25T10:43:33.856Z,97427.97
2023-01-25T10:46:02.536Z,97420.34
2023-01-25T10:48:35.681Z,97417.91
2023-01-25T10:51:02.820Z,97422.78
2023-01-25T10:53:32.583Z,97415.50
2023-01-25T10:56:12.153Z,97409.34
2023-01-25T10:58:46.507Z,97417.44
2023-01-25T11:01:28.958Z,97407.53
2023-01-25T11:03:57.055Z,97410.81
2023-01-25T11:06:30.215Z,97405.13
2023-01-25T11:08:57.614Z,97399.13
2023-01-25T11:11:31.628Z,97400.41
2023-01-25T11:13:59.257Z,97389.72
2023-01-25T11:16:26.336Z,97387.44
2023-01-25T11:18:55.785Z,97379.69
2023-01-25T11:21:28.780Z,97372.34
2023-01-25T11:24:05.046Z,97374.47
2023-01-25T11:26:34.415Z,97371.69
2023-01-25T11:29:15.297Z,97362.13
2023-01-25T11:31:46.639Z,97362.44
2023-01-25T11:34:17.298Z,97353.69
2023-01-25T11:37:12.625Z,97350.09
2023-01-25T11:39:45.653Z,97350.91
2023-01-25T11:42:40.856Z,97341.19
2023-01-25T11:45:31.938Z,97335.84
2023-01-25T11:48:35.819Z,97339.25
2023-01-25T11:51:08.935Z,97338.28
2023-01-25T11:54:02.100Z,97334.22
2023-01-25T11:56:52.298Z,97327.47
2023-01-25T11:59:25.295Z,97329.09
2023-01-25T12:13:48.895Z,97298.28
2023-01-25T12:16:42.296Z,97292.50
2023-01-25T12:19:46.623Z,97286.50
2023-01-25T12:22:13.777Z,97285.84
2023-01-25T12:24:52.856Z,97278.25
2023-01-25T12:27:26.137Z,97281.78
2023-01-25T12:30:33.979Z,97278.19
2023-01-25T12:33:14.241Z,97276.06
2023-01-25T12:36:05.257Z,97268.31
2023-01-25T12:38:54.901Z,97267.47
2023-01-25T12:42:00.700Z,97265.22
2023-01-25T12:44:45.225Z,97256.28
2023-01-25T12:47:25.462Z,97255.31
2023-01-25T12:49:59.856Z,97253.53
2023-01-25T12:52:41.493Z,97244.63
2023-01-25T12:55:15.391Z,97239.00
2023-01-25T12:57:54.098Z,97241.41
2023-01-25T13:00:46.392Z,97231.81
2023-01-25T13:03:28.620Z,97233.13
2023-01-25T13:06:22.545Z,97230.53
2023-01-25T13:09:15.464Z,97234.41
2023-01-25T13:11:45.902Z,97232.47
2023-01-25T13:14:18.978Z,97227.72
2023-01-25T13:16:51.941Z,97225.31
2023-01-25T13:19:29.348Z,97234.72
2023-01-25T13:21:58.746Z,97229.41
2023-01-25T13:24:29.540Z,97230.56
2023-01-25T13:26:57.379Z,97223.66
2023-01-25T13:29:47.353Z,97221.56
2023-01-25T13:32:34.738Z,97219.47
2023-01-25T13:35:02.860Z,97212.53
2023-01-25T13:37:32.786Z,97204.28
2023-01-25T13:40:09.669Z,97203.47
2023-01-25T13:42:39.692Z,97202.19
2023-01-25T13:45:21.147Z,97208.34
2023-01-25T13:48:24.781Z,97202.03
2023-01-25T13:50:55.866Z,97200.88
2023-01-25T13:53:27.057Z,97199.59
2023-01-25T13:55:57.075Z,97202.03
2023-01-25T13:58:28.643Z,97198.78
2023-01-25T14:00:59.134Z,97194.59
2023-01-25T14:03:28.312Z,97196.22
2023-01-25T14:05:57.829Z,97203.97
2023-01-25T14:08:27.023Z,97194.59
2023-01-25T14:10:55.738Z,97186.53
2023-01-25T14:13:23.381Z,97196.06
2023-01-25T14:16:04.659Z,97202.69
2023-01-25T14:18:34.695Z,97198.97
2023-01-25T14:21:20.218Z,97199.13
2023-01-25T14:23:48.982Z,97197.84
2023-01-25T14:26:23.619Z,97198.97
2023-01-25T14:29:02.543Z,97203.50
2023-01-25T14:31:35.587Z,97194.47
2023-01-25T14:34:05.230Z,97196.06
2023-01-25T14:36:34.990Z,97197.84
2023-01-25T14:39:04.575Z,97196.88
2023-01-25T14:41:45.927Z,97193.66
2023-01-25T14:44:16.741Z,97188.47
2023-01-25T14:46:43.976Z,97189.28
2023-01-25T14:49:25.825Z,97183.28
2023-01-25T14:52:13.856Z,97183.28
2023-01-25T14:54:56.496Z,97184.75
2023-01-25T14:57:39.256Z,97178.28
2023-01-25T15:00:32.013Z,97181.84
2023-01-25T15:03:07.215Z,97181.03
2023-01-25T15:05:36.682Z,97180.06
2023-01-25T15:08:09.737Z,97174.06
2023-01-25T15:10:38.671Z,97172.16
2023-01-25T15:13:15.563Z,97168.28
2023-01-25T15:16:00.569Z,97177.19
2023-01-25T15:18:51.814Z,97178.63
2023-01-25T15:21:24.381Z,97173.13
2023-01-25T15:23:52.760Z,97168.75
2023-01-25T15:26:30.107Z,97171.34
2023-01-25T15:29:01.465Z,97174.06
2023-01-25T15:31:31.912Z,97173.28
2023-01-25T15:34:00.427Z,97173.75
2023-01-25T15:36:28.194Z,97173.41
2023-01-25T15:38:55.538Z,97171.00
2023-01-25T15:41:23.142Z,97173.06
2023-01-25T15:43:51.033Z,97167.59
2023-01-25T15:46:28.231Z,97163.84
2023-01-25T15:48:56.182Z,97170.81
2023-01-25T15:51:24.020Z,97171.31
2023-01-25T15:53:51.296Z,97169.53
2023-01-25T15:56:34.621Z,97169.53
2023-01-25T15:59:07.278Z,97174.53
2023-01-25T16:01:35.228Z,97169.19
2023-01-25T16:04:02.562Z,97167.22
2023-01-25T16:06:54.615Z,97165.81
2023-01-25T16:09:30.140Z,97164.78
2023-01-25T16:11:59.626Z,97162.41
2023-01-25T16:14:29.432Z,97169.34
2023-01-25T16:17:06.091Z,97162.56
2023-01-25T16:19:34.100Z,97160.44
2023-01-25T16:22:01.383Z,97163.66
2023-01-25T16:24:28.703Z,97160.28
2023-01-25T16:26:58.145Z,97160.63
2023-01-25T16:29:26.180Z,97155.25
2023-01-25T16:31:54.703Z,97155.09
2023-01-25T16:34:22.617Z,97153.31
2023-01-25T16:36:51.164Z,97154.81
2023-01-25T16:39:21.671Z,97153.38
2023-01-25T16:41:49.420Z,97160.34
2023-01-25T16:44:16.816Z,97153.56
2023-01-25T16:46:44.272Z,97154.19
2023-01-25T16:49:16.874Z,97150.47
2023-01-25T16:51:45.820Z,97145.00
2023-01-25T16:54:13.018Z,97143.03
2023-01-25T16:56:40.261Z,97151.16
2023-01-25T16:59:09.735Z,97141.28
2023-01-25T17:01:40.124Z,97147.44
2023-01-25T17:04:08.656Z,97145.31
2023-01-25T17:06:39.178Z,97141.28
2023-01-25T17:09:21.634Z,97135.13
2023-01-25T17:11:50.504Z,97134.31
2023-01-25T17:14:19.310Z,97136.59
2023-01-25T17:16:48.658Z,97127.03
2023-01-25T17:19:17.544Z,97119.94
2023-01-25T17:21:45.898Z,97122.19
2023-01-25T17:24:18.535Z,97124.09
2023-01-25T17:26:45.750Z,97120.53
2023-01-25T17:29:14.630Z,97125.88
2023-01-25T17:31:42.625Z,97119.13
2023-01-25T17:34:16.406Z,97113.75
2023-01-25T17:36:44.310Z,97111.97
2023-01-25T17:39:17.743Z,97123.94
2023-01-25T17:41:46.540Z,97110.34
2023-01-25T17:44:17.695Z,97119.94
2023-01-25T17:46:44.951Z,97123.94
2023-01-25T17:49:13.938Z,97111.53
2023-01-25T17:51:41.219Z,97113.31
2023-01-25T17:54:08.856Z,97112.00
2023-01-25T17:56:39.224Z,97104.09
2023-01-25T17:59:09.301Z,97105.88
2023-01-25T18:01:37.716Z,97105.25
2023-01-25T18:04:08.248Z,97106.09
2023-01-25T18:06:35.622Z,97098.47
2023-01-25T18:09:04.256Z,97108.03
2023-01-25T18:11:34.219Z,97097.69
2023-01-25T18:14:04.633Z,97091.06
2023-01-25T18:16:32.629Z,97088.47
2023-01-25T18:19:01.337Z,97083.13
2023-01-25T18:21:31.953Z,97085.56
2023-01-25T18:24:22.355Z,97073.75
2023-01-25T18:26:51.455Z,97072.94
2023-01-25T18:29:18.665Z,97073.75
2023-01-25T18:31:45.942Z,97067.44
2023-01-25T18:34:13.777Z,97063.69
2023-01-25T18:36:41.020Z,97072.63
2023-01-25T18:39:09.380Z,97060.66
2023-01-25T18:41:36.425Z,97062.59
2023-01-25T18:44:03.617Z,97061.97
2023-01-25T18:46:30.993Z,97055.00
2023-01-25T18:48:58.231Z,97047.25
2023-01-25T18:51:26.477Z,97042.72
2023-01-25T18:53:54.176Z,97041.41
2023-01-25T18:56:22.535Z,97042.84
2023-01-25T18:58:51.387Z,97044.81
2023-01-25T19:01:23.147Z,97041.06
2023-01-25T19:03:51.299Z,97041.22
2023-01-25T19:06:19.958Z,97031.06
2023-01-25T19:08:53.539Z,97027.47
2023-01-25T19:11:22.467Z,97026.88
2023-01-25T19:13:51.140Z,97022.19
2023-01-25T19:16:24.574Z,97016.03
2023-01-25T19:18:53.937Z,97021.22
2023-01-25T19:21:28.536Z,97002.28
2023-01-25T19:23:56.686Z,97004.44
2023-01-25T19:26:24.937Z,97003.94
2023-01-25T19:28:52.497Z,97001.53
2023-01-25T19:31:24.829Z,96990.84
2023-01-25T19:34:00.750Z,96990.22
2023-01-25T19:36:29.937Z,96991.03
2023-01-25T19:39:00.414Z,96990.22
2023-01-25T19:41:30.895Z,96985.69
2023-01-25T19:44:00.668Z,96982.94
2023-01-25T19:46:33.748Z,96982.78
2023-01-25T19:49:02.294Z,96981.97
2023-01-25T19:51:31.993Z,96978.56
2023-01-25T19:54:03.698Z,96971.63
2023-01-25T19:56:41.976Z,96975.00
2023-01-25T19:59:12.701Z,96964.31
2023-01-25T20:01:46.599Z,96963.16
2023-01-25T20:04:17.857Z,96958.63
2023-01-25T20:06:45.097Z,96960.75
2023-01-25T20:09:14.203Z,96947.16
2023-01-25T20:11:42.097Z,96951.72
2023-01-25T20:14:12.226Z,96943.66
2023-01-25T20:16:39.864Z,96947.22
2023-01-25T20:19:16.868Z,96946.13
2023-01-25T20:21:44.752Z,96945.31
2023-01-25T20:24:12.025Z,96941.75
2023-01-25T20:26:42.996Z,96930.44
2023-01-25T20:29:12.059Z,96929.81
2023-01-25T20:31:41.403Z,96932.59
2023-01-25T20:34:20.377Z,96919.00
2023-01-25T20:36:48.897Z,96914.81
2023-01-25T20:39:22.037Z,96918.22
2023-01-25T20:41:53.801Z,96905.28
2023-01-25T20:44:21.496Z,96906.56
2023-01-25T20:46:50.295Z,96898.22
2023-01-25T20:49:18.724Z,96893.84
2023-01-25T20:51:47.462Z,96891.59
2023-01-25T20:54:15.901Z,96887.22
2023-01-25T20:56:43.333Z,96891.44
2023-01-25T20:59:10.698Z,96883.84
2023-01-25T21:01:38.368Z,96882.38
2023-01-25T21:04:08.267Z,96879.19
2023-01-25T21:06:36.775Z,96874.19
2023-01-25T21:09:05.242Z,96878.53
2023-01-25T21:11:32.711Z,96870.47
2023-01-25T21:13:59.991Z,96864.97
2023-01-25T21:16:27.851Z,96871.59
2023-01-25T21:18:58.030Z,96866.44
2023-01-25T21:21:28.232Z,96863.03
2023-01-25T21:23:58.090Z,96857.88
2023-01-25T21:26:27.615Z,96858.69
2023-01-25T21:28:55.463Z,96853.34
2023-01-25T21:31:26.933Z,96853.66
2023-01-25T21:33:55.180Z,96853.66
2023-01-25T21:36:23.103Z,96847.53
2023-01-25T21:38:51.988Z,96842.69
2023-01-25T21:41:25.089Z,96836.09
2023-01-25T21:44:15.478Z,96833.34
2023-01-25T21:46:49.259Z,96838.22
2023-01-25T21:49:46.456Z,96832.06
2023-01-25T21:52:13.665Z,96831.25
2023-01-25T21:54:40.951Z,96827.44
2023-01-25T21:57:10.228Z,96825.44
2023-01-25T21:59:38.343Z,96812.72
2023-01-25T22:02:07.669Z,96810.59
2023-01-25T22:04:38.378Z,96815.91
2023-01-25T22:07:07.815Z,96805.78
2023-01-25T22:09:35.024Z,96810.41
2023-01-25T22:12:02.415Z,96795.56
2023-01-25T22:14:29.884Z,96803.91
2023-01-25T22:16:57.099Z,96796.97
2023-01-25T22:19:24.697Z,96798.06
2023-01-25T22:21:52.155Z,96797.59
2023-01-25T22:24:19.708Z,96791.47
2023-01-25T22:26:51.017Z,96790.81
2023-01-25T22:29:18.698Z,96787.78
2023-01-25T22:31:45.918Z,96791.19
2023-01-25T22:34:13.179Z,96784.84
2023-01-25T22:36:40.399Z,96782.78
2023-01-25T22:39:07.657Z,96783.59
2023-01-25T22:41:37.663Z,96776.97
2023-01-25T22:44:05.098Z,96771.69
2023-01-25T22:46:32.629Z,96766.69
2023-01-25T22:49:01.457Z,96762.69
2023-01-25T22:51:30.537Z,96759.31
2023-01-25T22:53:59.217Z,96762.41
2023-01-25T22:56:32.187Z,96753.84
2023-01-25T22:59:00.791Z,96754.03
2023-01-25T23:01:33.975Z,96747.59
2023-01-25T23:04:02.397Z,96744.03
2023-01-25T23:06:31.539Z,96750.16
2023-01-25T23:09:00.303Z,96743.41
2023-01-25T23:11:35.878Z,96749.38
2023-01-25T23:14:26.462Z,96741.78
2023-01-25T23:16:53.662Z,96750.53
2023-01-25T23:19:21.135Z,96743.13
2023-01-25T23:21:48.422Z,96747.47
2023-01-25T23:24:15.715Z,96744.72
2023-01-25T23:26:46.744Z,96730.84
2023-01-25T23:29:14.739Z,96731.81
2023-01-25T23:31:42.463Z,96721.31
2023-01-25T23:34:11.663Z,96725.31
2023-01-25T23:36:39.898Z,96720.13
2023-01-25T23:39:07.244Z,96715.94
2023-01-25T23:41:34.540Z,96717.13
2023-01-25T23:44:02.192Z,96703.03
2023-01-25T23:46:29.904Z,96702.22
2023-01-25T23:48:57.176Z,96703.84
2023-01-25T23:51:24.493Z,96701.78
2023-01-25T23:53:53.791Z,96703.03
2023-01-25T23:56:22.509Z,96699.63
2023-01-25T23:58:50.015Z,96704.03
